createdAt,value
2023-02-18T00:00:43.177Z,32.37
2023-02-18T00:03:46.108Z,30.33
2023-02-18T00:06:48.114Z,29.60
2023-02-18T00:09:49.856Z,30.23
2023-02-18T00:12:53.038Z,29.37
2023-02-18T00:15:54.875Z,31.17
2023-02-18T00:18:58.844Z,30.73
2023-02-18T00:22:00.631Z,31.73
2023-02-18T00:25:02.820Z,34.00
2023-02-18T00:28:04.806Z,30.40
2023-02-18T00:31:12.262Z,36.77
2023-02-18T00:34:14.466Z,31.50
2023-02-18T00:37:16.369Z,33.80
2023-02-18T00:40:18.401Z,31.57
2023-02-18T00:43:20.237Z,32.53
2023-02-18T00:46:23.218Z,31.80
2023-02-18T00:49:25.170Z,30.57
2023-02-18T00:52:26.975Z,33.77
2023-02-18T00:55:28.785Z,32.63
2023-02-18T00:58:30.657Z,29.47
2023-02-18T01:01:32.479Z,33.70
2023-02-18T01:04:34.846Z,34.83
2023-02-18T01:11:14.261Z,30.77
2023-02-18T01:14:15.968Z,30.17
2023-02-18T01:17:18.967Z,33.40
2023-02-18T01:20:20.870Z,34.40
2023-02-18T01:23:23.149Z,30.00
2023-02-18T01:26:24.961Z,31.07
2023-02-18T01:36:35.763Z,28.23
2023-02-18T01:39:37.491Z,26.10
2023-02-18T01:42:41.610Z,26.77
2023-02-18T01:46:03.599Z,30.97
2023-02-18T01:49:06.728Z,27.07
2023-02-18T01:59:15.724Z,31.67
2023-02-18T02:02:20.110Z,34.67
2023-02-18T02:05:22.358Z,39.97
2023-02-18T02:08:24.194Z,37.23
2023-02-18T02:11:43.847Z,37.53
2023-02-18T02:14:59.381Z,35.93
2023-02-18T02:21:35.632Z,47.33
2023-02-18T02:24:59.414Z,39.27
2023-02-18T02:28:16.876Z,32.00
2023-02-18T02:35:16.171Z,36.57
2023-02-18T02:38:31.127Z,33.30
2023-02-18T02:42:20.403Z,34.57
2023-02-18T02:45:29.501Z,32.80
2023-02-18T02:48:50.254Z,38.23
2023-02-18T02:52:05.642Z,33.30
2023-02-18T02:55:11.629Z,39.70
2023-02-18T02:58:18.653Z,33.40
2023-02-18T03:05:18.901Z,33.83
2023-02-18T03:08:46.604Z,33.10
2023-02-18T03:12:06.448Z,32.30
2023-02-18T03:15:42.271Z,26.47
2023-02-18T03:18:50.257Z,31.30
2023-02-18T03:22:11.194Z,24.47
2023-02-18T03:25:14.870Z,23.50
2023-02-18T03:31:53.361Z,19.73
2023-02-18T03:35:00.681Z,22.10
2023-02-18T03:38:05.547Z,17.67
2023-02-18T03:41:07.480Z,17.90
2023-02-18T03:44:12.033Z,14.83
2023-02-18T03:47:13.921Z,14.00
2023-02-18T03:50:16.483Z,16.20
2023-02-18T03:53:18.870Z,15.97
2023-02-18T03:56:21.462Z,15.27
2023-02-18T03:59:23.270Z,13.17
2023-02-18T04:02:25.082Z,14.63
2023-02-18T04:05:27.002Z,11.47
2023-02-18T04:08:29.058Z,14.13
2023-02-18T04:11:30.890Z,16.43
2023-02-18T04:14:32.682Z,12.77
2023-02-18T04:17:34.783Z,12.30
2023-02-18T04:20:37.370Z,14.80
2023-02-18T04:23:39.189Z,14.13
2023-02-18T04:26:41.207Z,11.23
2023-02-18T04:29:43.133Z,16.77
2023-02-18T04:32:45.000Z,11.87
2023-02-18T04:43:03.198Z,14.13
2023-02-18T04:49:36.116Z,13.47
2023-02-18T04:52:37.954Z,12.53
2023-02-18T04:55:39.842Z,11.43
2023-02-18T04:58:41.640Z,13.43
2023-02-18T05:09:13.810Z,9.23
2023-02-18T05:15:53.094Z,10.40
2023-02-18T05:29:08.000Z,8.03
2023-02-18T05:32:09.806Z,6.30
2023-02-18T05:35:11.670Z,5.17
2023-02-18T05:53:08.446Z,3.35
2023-02-18T06:28:48.053Z,1.53
2023-02-18T06:31:50.069Z,3.63
2023-02-18T07:41:34.090Z,3.17
2023-02-18T07:44:37.203Z,2.77
2023-02-18T07:47:39.132Z,3.53
2023-02-18T07:50:42.152Z,2.53
2023-02-18T07:53:44.843Z,3.87
2023-02-18T10:25:46.510Z,12.03
2023-02-18T10:28:48.757Z,13.63
2023-02-18T10:32:21.281Z,14.53
2023-02-18T10:35:37.449Z,9.77
2023-02-18T11:22:28.331Z,8.70
2023-02-18T11:25:36.663Z,8.07
2023-02-18T11:28:45.861Z,8.77
2023-02-18T11:31:51.046Z,10.50
2023-02-18T11:34:53.380Z,7.97
2023-02-18T11:48:31.446Z,5.00
2023-02-18T12:23:51.690Z,6.10
2023-02-18T12:26:59.424Z,6.83
2023-02-18T12:30:39.783Z,6.40
2023-02-18T12:34:03.243Z,6.53
2023-02-18T13:47:39.941Z,6.90
2023-02-18T13:50:43.493Z,5.37
2023-02-18T13:53:51.931Z,6.97
2023-02-18T13:57:06.233Z,7.27
2023-02-18T14:00:20.776Z,5.20
2023-02-18T14:47:49.086Z,20.47
2023-02-18T14:50:52.850Z,10.33
2023-02-18T14:53:54.790Z,11.70
2023-02-18T14:57:00.473Z,18.63
2023-02-18T15:53:25.785Z,15.10
2023-02-18T15:56:38.914Z,11.73
2023-02-18T15:59:55.917Z,15.40
2023-02-18T16:03:23.246Z,10.43
2023-02-18T16:16:54.630Z,12.43
2023-02-18T17:05:47.204Z,14.20
2023-02-18T17:08:49.398Z,16.10
2023-02-18T17:11:53.692Z,12.27
2023-02-18T17:14:55.427Z,11.53
2023-02-18T18:02:43.299Z,15.47
2023-02-18T18:05:49.156Z,18.83
2023-02-18T18:08:51.043Z,14.90
2023-02-18T18:11:52.751Z,19.33
2023-02-18T19:14:41.049Z,23.20
2023-02-18T19:54:27.852Z,14.70
2023-02-18T20:04:45.284Z,15.90
2023-02-18T20:33:09.945Z,14.60
2023-02-18T21:00:59.340Z,8.97
2023-02-18T21:33:05.630Z,13.17
2023-02-18T21:43:00.773Z,24.33
2023-02-18T21:46:13.352Z,24.03
2023-02-18T21:52:46.172Z,29.07
2023-02-18T21:56:02.999Z,29.53
2023-02-18T22:02:36.142Z,33.73
2023-02-18T22:09:08.601Z,31.80
2023-02-18T22:36:41.433Z,26.43
2023-02-18T22:39:43.261Z,22.87
2023-02-18T22:53:26.572Z,23.30
2023-02-18T23:06:53.226Z,25.83
2023-02-18T23:09:55.076Z,27.50
2023-02-18T23:16:28.129Z,25.07
2023-02-18T23:19:32.061Z,18.97
2023-02-18T23:22:33.897Z,24.23
2023-02-18T23:25:35.663Z,29.03
2023-02-18T23:28:49.512Z,20.77
2023-02-18T23:31:51.374Z,25.77
2023-02-18T23:34:53.183Z,24.23
2023-02-18T23:38:03.749Z,20.67
2023-02-18T23:41:06.603Z,26.47
2023-02-18T23:44:11.899Z,27.83
2023-02-18T23:47:13.587Z,26.13
2023-02-18T23:50:18.883Z,26.73
2023-02-18T23:53:20.634Z,28.37
2023-02-18T23:56:24.974Z,21.73
2023-02-18T23:59:26.746Z,30.30
